sensor_id;sensor_type;location;lat;lon;timestamp;P1;durP1;ratioP1;P2;durP2;ratioP2
37843;SDS011;23930;57.632;18.292;2022-07-01T00:02:14;28.70;;;24.10;;
37843;SDS011;23930;57.632;18.292;2022-07-01T00:04:44;29.52;;;21.95;;
37843;SDS011;23930;57.632;18.292;2022-07-01T00:07:30;26.73;;;20.15;;
37843;SDS011;23930;57.632;18.292;2022-07-01T00:09:57;26.45;;;21.77;;
37843;SDS011;23930;57.632;18.292;2022-07-01T00:12:23;23.98;;;20.67;;
37843;SDS011;23930;57.632;18.292;2022-07-01T00:14:50;23.25;;;19.35;;
37843;SDS011;23930;57.632;18.292;2022-07-01T00:17:17;23.02;;;20.60;;
37843;SDS011;23930;57.632;18.292;2022-07-01T00:19:44;25.58;;;18.77;;
37843;SDS011;23930;57.632;18.292;2022-07-01T00:22:11;19.65;;;17.02;;
37843;SDS011;23930;57.632;18.292;2022-07-01T00:24:38;19.45;;;15.23;;
37843;SDS011;23930;57.632;18.292;2022-07-01T00:27:05;14.60;;;12.48;;
37843;SDS011;23930;57.632;18.292;2022-07-01T00:29:32;13.75;;;9.88;;
37843;SDS011;23930;57.632;18.292;2022-07-01T00:32:00;11.15;;;8.45;;
37843;SDS011;23930;57.632;18.292;2022-07-01T00:34:27;10.07;;;7.25;;
37843;SDS011;23930;57.632;18.292;2022-07-01T00:36:54;11.00;;;8.18;;
37843;SDS011;23930;57.632;18.292;2022-07-01T00:39:21;6.97;;;6.15;;
37843;SDS011;23930;57.632;18.292;2022-07-01T00:41:48;5.22;;;4.43;;
37843;SDS011;23930;57.632;18.292;2022-07-01T00:44:21;7.60;;;5.93;;
37843;SDS011;23930;57.632;18.292;2022-07-01T00:46:49;6.40;;;5.70;;
37843;SDS011;23930;57.632;18.292;2022-07-01T00:49:17;6.90;;;4.82;;
37843;SDS011;23930;57.632;18.292;2022-07-01T00:51:45;8.23;;;6.20;;
37843;SDS011;23930;57.632;18.292;2022-07-01T00:54:12;5.85;;;5.25;;
37843;SDS011;23930;57.632;18.292;2022-07-01T00:56:39;9.23;;;8.32;;
37843;SDS011;23930;57.632;18.292;2022-07-01T00:59:06;7.10;;;6.32;;
37843;SDS011;23930;57.632;18.292;2022-07-01T01:01:33;7.57;;;5.85;;
37843;SDS011;23930;57.632;18.292;2022-07-01T01:04:01;8.65;;;7.28;;
37843;SDS011;23930;57.632;18.292;2022-07-01T01:06:28;7.47;;;5.93;;
37843;SDS011;23930;57.632;18.292;2022-07-01T01:08:55;8.20;;;6.85;;
37843;SDS011;23930;57.632;18.292;2022-07-01T01:11:22;6.65;;;6.05;;
37843;SDS011;23930;57.632;18.292;2022-07-01T01:13:49;8.40;;;6.82;;
37843;SDS011;23930;57.632;18.292;2022-07-01T01:16:20;6.63;;;6.00;;
37843;SDS011;23930;57.632;18.292;2022-07-01T01:18:49;6.47;;;5.47;;
37843;SDS011;23930;57.632;18.292;2022-07-01T01:21:16;6.63;;;5.80;;
37843;SDS011;23930;57.632;18.292;2022-07-01T01:23:43;5.82;;;5.32;;
37843;SDS011;23930;57.632;18.292;2022-07-01T01:26:20;5.40;;;4.57;;
37843;SDS011;23930;57.632;18.292;2022-07-01T01:28:50;5.70;;;4.93;;
37843;SDS011;23930;57.632;18.292;2022-07-01T01:31:18;6.35;;;4.80;;
37843;SDS011;23930;57.632;18.292;2022-07-01T01:33:57;8.20;;;5.28;;
37843;SDS011;23930;57.632;18.292;2022-07-01T01:36:24;7.05;;;4.40;;
37843;SDS011;23930;57.632;18.292;2022-07-01T01:38:51;6.43;;;5.35;;
37843;SDS011;23930;57.632;18.292;2022-07-01T01:41:19;5.88;;;5.03;;
37843;SDS011;23930;57.632;18.292;2022-07-01T01:43:46;8.85;;;5.72;;
37843;SDS011;23930;57.632;18.292;2022-07-01T01:46:13;6.55;;;5.85;;
37843;SDS011;23930;57.632;18.292;2022-07-01T01:48:40;4.88;;;4.20;;
37843;SDS011;23930;57.632;18.292;2022-07-01T01:51:07;5.18;;;4.55;;
37843;SDS011;23930;57.632;18.292;2022-07-01T01:53:34;5.47;;;4.85;;
37843;SDS011;23930;57.632;18.292;2022-07-01T01:56:01;7.32;;;4.22;;
37843;SDS011;23930;57.632;18.292;2022-07-01T01:58:28;5.18;;;4.68;;
37843;SDS011;23930;57.632;18.292;2022-07-01T02:00:55;6.85;;;5.63;;
37843;SDS011;23930;57.632;18.292;2022-07-01T02:03:22;5.40;;;4.88;;
37843;SDS011;23930;57.632;18.292;2022-07-01T02:05:49;6.68;;;4.20;;
37843;SDS011;23930;57.632;18.292;2022-07-01T02:08:16;4.93;;;4.45;;
37843;SDS011;23930;57.632;18.292;2022-07-01T02:10:43;4.60;;;4.20;;
37843;SDS011;23930;57.632;18.292;2022-07-01T02:13:10;5.28;;;4.80;;
37843;SDS011;23930;57.632;18.292;2022-07-01T02:15:37;7.88;;;5.35;;
37843;SDS011;23930;57.632;18.292;2022-07-01T02:18:05;5.28;;;4.75;;
37843;SDS011;23930;57.632;18.292;2022-07-01T02:20:32;5.75;;;4.35;;
37843;SDS011;23930;57.632;18.292;2022-07-01T02:23:00;6.60;;;4.55;;
37843;SDS011;23930;57.632;18.292;2022-07-01T02:25:27;4.80;;;4.40;;
37843;SDS011;23930;57.632;18.292;2022-07-01T02:27:54;5.97;;;5.15;;
37843;SDS011;23930;57.632;18.292;2022-07-01T02:30:21;6.90;;;6.30;;
37843;SDS011;23930;57.632;18.292;2022-07-01T02:32:47;4.57;;;4.15;;
37843;SDS011;23930;57.632;18.292;2022-07-01T02:35:14;5.70;;;5.10;;
37843;SDS011;23930;57.632;18.292;2022-07-01T02:37:41;4.85;;;3.95;;
37843;SDS011;23930;57.632;18.292;2022-07-01T02:40:09;4.80;;;4.32;;
37843;SDS011;23930;57.632;18.292;2022-07-01T02:42:38;5.07;;;4.30;;
37843;SDS011;23930;57.632;18.292;2022-07-01T02:45:05;5.55;;;5.00;;
37843;SDS011;23930;57.632;18.292;2022-07-01T02:47:33;7.93;;;6.40;;
37843;SDS011;23930;57.632;18.292;2022-07-01T02:50:05;4.95;;;4.40;;
37843;SDS011;23930;57.632;18.292;2022-07-01T02:52:34;5.80;;;4.38;;
37843;SDS011;23930;57.632;18.292;2022-07-01T02:55:02;5.68;;;5.00;;
37843;SDS011;23930;57.632;18.292;2022-07-01T02:57:30;6.18;;;5.57;;
37843;SDS011;23930;57.632;18.292;2022-07-01T02:59:57;5.47;;;4.97;;
37843;SDS011;23930;57.632;18.292;2022-07-01T03:02:24;5.97;;;4.78;;
37843;SDS011;23930;57.632;18.292;2022-07-01T03:04:52;6.70;;;5.68;;
37843;SDS011;23930;57.632;18.292;2022-07-01T03:07:20;6.07;;;5.57;;
37843;SDS011;23930;57.632;18.292;2022-07-01T03:09:48;8.48;;;6.07;;
37843;SDS011;23930;57.632;18.292;2022-07-01T03:12:15;8.68;;;6.32;;
37843;SDS011;23930;57.632;18.292;2022-07-01T03:14:52;9.60;;;7.03;;
37843;SDS011;23930;57.632;18.292;2022-07-01T03:17:27;8.32;;;6.38;;
37843;SDS011;23930;57.632;18.292;2022-07-01T03:20:00;6.57;;;5.88;;
37843;SDS011;23930;57.632;18.292;2022-07-01T03:22:29;11.65;;;6.68;;
37843;SDS011;23930;57.632;18.292;2022-07-01T03:24:57;8.60;;;7.10;;
37843;SDS011;23930;57.632;18.292;2022-07-01T03:27:25;20.85;;;8.02;;
37843;SDS011;23930;57.632;18.292;2022-07-01T03:29:52;8.65;;;6.80;;
37843;SDS011;23930;57.632;18.292;2022-07-01T03:32:19;6.65;;;6.00;;
37843;SDS011;23930;57.632;18.292;2022-07-01T03:34:47;9.98;;;7.63;;
37843;SDS011;23930;57.632;18.292;2022-07-01T03:37:16;9.02;;;7.30;;
37843;SDS011;23930;57.632;18.292;2022-07-01T03:39:44;10.55;;;8.05;;
37843;SDS011;23930;57.632;18.292;2022-07-01T03:42:11;10.25;;;7.97;;
37843;SDS011;23930;57.632;18.292;2022-07-01T03:44:39;8.85;;;7.95;;
37843;SDS011;23930;57.632;18.292;2022-07-01T03:47:06;9.13;;;8.23;;
37843;SDS011;23930;57.632;18.292;2022-07-01T03:49:34;9.00;;;7.22;;
37843;SDS011;23930;57.632;18.292;2022-07-01T03:52:02;11.50;;;10.18;;
37843;SDS011;23930;57.632;18.292;2022-07-01T03:54:29;11.07;;;9.98;;
37843;SDS011;23930;57.632;18.292;2022-07-01T03:56:57;14.35;;;10.27;;
37843;SDS011;23930;57.632;18.292;2022-07-01T03:59:30;12.95;;;8.57;;
37843;SDS011;23930;57.632;18.292;2022-07-01T04:01:58;12.30;;;9.27;;
37843;SDS011;23930;57.632;18.292;2022-07-01T04:04:26;15.65;;;10.35;;
37843;SDS011;23930;57.632;18.292;2022-07-01T04:06:53;14.07;;;9.48;;
37843;SDS011;23930;57.632;18.292;2022-07-01T04:09:23;13.18;;;10.48;;
37843;SDS011;23930;57.632;18.292;2022-07-01T04:11:51;11.77;;;8.23;;
37843;SDS011;23930;57.632;18.292;2022-07-01T04:14:19;11.60;;;8.27;;
37843;SDS011;23930;57.632;18.292;2022-07-01T04:16:46;13.57;;;9.35;;
37843;SDS011;23930;57.632;18.292;2022-07-01T04:19:14;11.63;;;9.70;;
37843;SDS011;23930;57.632;18.292;2022-07-01T04:21:41;12.38;;;10.45;;
37843;SDS011;23930;57.632;18.292;2022-07-01T04:24:26;14.50;;;10.23;;
37843;SDS011;23930;57.632;18.292;2022-07-01T04:26:55;14.70;;;11.93;;
37843;SDS011;23930;57.632;18.292;2022-07-01T04:29:22;17.50;;;11.63;;
37843;SDS011;23930;57.632;18.292;2022-07-01T04:31:49;16.40;;;10.95;;
37843;SDS011;23930;57.632;18.292;2022-07-01T04:34:16;22.25;;;13.93;;
37843;SDS011;23930;57.632;18.292;2022-07-01T04:36:43;13.48;;;11.93;;
37843;SDS011;23930;57.632;18.292;2022-07-01T04:39:10;15.07;;;11.52;;
37843;SDS011;23930;57.632;18.292;2022-07-01T04:41:37;19.40;;;14.57;;
37843;SDS011;23930;57.632;18.292;2022-07-01T04:44:22;25.98;;;13.13;;
37843;SDS011;23930;57.632;18.292;2022-07-01T04:46:49;18.63;;;12.10;;
37843;SDS011;23930;57.632;18.292;2022-07-01T04:49:17;29.27;;;15.07;;
37843;SDS011;23930;57.632;18.292;2022-07-01T04:51:44;18.08;;;13.88;;
37843;SDS011;23930;57.632;18.292;2022-07-01T04:54:11;19.80;;;13.88;;
37843;SDS011;23930;57.632;18.292;2022-07-01T04:56:38;24.90;;;15.00;;
37843;SDS011;23930;57.632;18.292;2022-07-01T04:59:09;20.80;;;14.20;;
37843;SDS011;23930;57.632;18.292;2022-07-01T05:01:45;20.10;;;14.23;;
37843;SDS011;23930;57.632;18.292;2022-07-01T05:04:15;31.55;;;16.27;;
37843;SDS011;23930;57.632;18.292;2022-07-01T05:06:43;24.67;;;14.15;;
37843;SDS011;23930;57.632;18.292;2022-07-01T05:09:10;29.05;;;16.38;;
37843;SDS011;23930;57.632;18.292;2022-07-01T05:11:39;19.92;;;14.70;;
37843;SDS011;23930;57.632;18.292;2022-07-01T05:14:06;18.85;;;15.23;;
37843;SDS011;23930;57.632;18.292;2022-07-01T05:16:34;29.27;;;17.05;;
37843;SDS011;23930;57.632;18.292;2022-07-01T05:19:02;24.75;;;15.55;;
37843;SDS011;23930;57.632;18.292;2022-07-01T05:21:48;27.67;;;15.05;;
37843;SDS011;23930;57.632;18.292;2022-07-01T05:24:27;19.50;;;14.48;;
37843;SDS011;23930;57.632;18.292;2022-07-01T05:26:57;26.88;;;16.63;;
37843;SDS011;23930;57.632;18.292;2022-07-01T05:29:25;26.50;;;16.42;;
37843;SDS011;23930;57.632;18.292;2022-07-01T05:31:53;26.20;;;16.83;;
37843;SDS011;23930;57.632;18.292;2022-07-01T05:34:20;24.20;;;14.57;;
37843;SDS011;23930;57.632;18.292;2022-07-01T05:36:47;22.40;;;14.98;;
37843;SDS011;23930;57.632;18.292;2022-07-01T05:39:14;18.50;;;15.52;;
37843;SDS011;23930;57.632;18.292;2022-07-01T05:41:41;24.30;;;14.10;;
37843;SDS011;23930;57.632;18.292;2022-07-01T05:44:08;26.58;;;14.90;;
37843;SDS011;23930;57.632;18.292;2022-07-01T05:46:35;25.55;;;14.25;;
37843;SDS011;23930;57.632;18.292;2022-07-01T05:49:03;23.25;;;14.82;;
37843;SDS011;23930;57.632;18.292;2022-07-01T05:51:30;24.83;;;14.55;;
37843;SDS011;23930;57.632;18.292;2022-07-01T05:53:57;17.25;;;11.25;;
37843;SDS011;23930;57.632;18.292;2022-07-01T05:56:24;16.60;;;13.07;;
37843;SDS011;23930;57.632;18.292;2022-07-01T05:58:52;17.85;;;12.02;;
37843;SDS011;23930;57.632;18.292;2022-07-01T06:01:20;20.20;;;11.77;;
37843;SDS011;23930;57.632;18.292;2022-07-01T06:03:47;17.73;;;12.82;;
37843;SDS011;23930;57.632;18.292;2022-07-01T06:06:14;19.73;;;14.45;;
37843;SDS011;23930;57.632;18.292;2022-07-01T06:08:41;19.15;;;11.75;;
37843;SDS011;23930;57.632;18.292;2022-07-01T06:11:08;25.08;;;13.95;;
37843;SDS011;23930;57.632;18.292;2022-07-01T06:13:35;19.33;;;13.55;;
37843;SDS011;23930;57.632;18.292;2022-07-01T06:16:02;26.20;;;14.57;;
37843;SDS011;23930;57.632;18.292;2022-07-01T06:18:29;24.50;;;14.75;;
37843;SDS011;23930;57.632;18.292;2022-07-01T06:20:56;20.75;;;16.17;;
37843;SDS011;23930;57.632;18.292;2022-07-01T06:23:23;15.52;;;11.75;;
37843;SDS011;23930;57.632;18.292;2022-07-01T06:25:50;26.55;;;14.48;;
37843;SDS011;23930;57.632;18.292;2022-07-01T06:28:17;20.35;;;13.25;;
37843;SDS011;23930;57.632;18.292;2022-07-01T06:30:44;23.88;;;16.13;;
37843;SDS011;23930;57.632;18.292;2022-07-01T06:33:12;21.45;;;13.02;;
37843;SDS011;23930;57.632;18.292;2022-07-01T06:35:39;23.08;;;13.95;;
37843;SDS011;23930;57.632;18.292;2022-07-01T06:38:07;18.73;;;12.98;;
37843;SDS011;23930;57.632;18.292;2022-07-01T06:40:34;21.55;;;13.00;;
37843;SDS011;23930;57.632;18.292;2022-07-01T06:43:00;21.65;;;13.20;;
37843;SDS011;23930;57.632;18.292;2022-07-01T06:45:27;21.52;;;14.75;;
37843;SDS011;23930;57.632;18.292;2022-07-01T06:47:55;21.08;;;11.52;;
37843;SDS011;23930;57.632;18.292;2022-07-01T06:50:22;16.45;;;10.60;;
37843;SDS011;23930;57.632;18.292;2022-07-01T06:52:49;24.88;;;15.15;;
37843;SDS011;23930;57.632;18.292;2022-07-01T06:55:16;18.85;;;11.40;;
37843;SDS011;23930;57.632;18.292;2022-07-01T06:57:43;19.45;;;11.60;;
37843;SDS011;23930;57.632;18.292;2022-07-01T07:00:10;20.65;;;11.82;;
37843;SDS011;23930;57.632;18.292;2022-07-01T07:02:38;32.78;;;10.98;;
37843;SDS011;23930;57.632;18.292;2022-07-01T07:05:06;20.08;;;11.05;;
37843;SDS011;23930;57.632;18.292;2022-07-01T07:07:34;11.05;;;9.05;;
37843;SDS011;23930;57.632;18.292;2022-07-01T07:10:01;14.30;;;10.15;;
37843;SDS011;23930;57.632;18.292;2022-07-01T07:12:28;15.35;;;8.88;;
37843;SDS011;23930;57.632;18.292;2022-07-01T07:14:55;13.90;;;9.43;;
37843;SDS011;23930;57.632;18.292;2022-07-01T07:17:21;12.43;;;8.75;;
37843;SDS011;23930;57.632;18.292;2022-07-01T07:19:49;13.15;;;9.18;;
37843;SDS011;23930;57.632;18.292;2022-07-01T07:22:16;12.63;;;8.65;;
37843;SDS011;23930;57.632;18.292;2022-07-01T07:24:43;15.32;;;8.82;;
37843;SDS011;23930;57.632;18.292;2022-07-01T07:27:10;17.60;;;10.20;;
37843;SDS011;23930;57.632;18.292;2022-07-01T07:29:37;12.50;;;9.52;;
37843;SDS011;23930;57.632;18.292;2022-07-01T07:32:05;11.60;;;9.38;;
37843;SDS011;23930;57.632;18.292;2022-07-01T07:34:33;13.13;;;8.98;;
37843;SDS011;23930;57.632;18.292;2022-07-01T07:37:01;15.00;;;10.18;;
37843;SDS011;23930;57.632;18.292;2022-07-01T07:39:28;11.55;;;7.82;;
37843;SDS011;23930;57.632;18.292;2022-07-01T07:41:58;13.20;;;7.75;;
37843;SDS011;23930;57.632;18.292;2022-07-01T07:44:25;20.13;;;10.07;;
37843;SDS011;23930;57.632;18.292;2022-07-01T07:46:52;17.42;;;10.55;;
37843;SDS011;23930;57.632;18.292;2022-07-01T07:49:19;9.60;;;8.52;;
37843;SDS011;23930;57.632;18.292;2022-07-01T07:51:46;11.45;;;8.63;;
37843;SDS011;23930;57.632;18.292;2022-07-01T07:54:13;12.32;;;8.38;;
37843;SDS011;23930;57.632;18.292;2022-07-01T07:56:40;19.00;;;11.80;;
37843;SDS011;23930;57.632;18.292;2022-07-01T08:01:38;10.50;;;8.77;;
37843;SDS011;23930;57.632;18.292;2022-07-01T08:04:05;11.82;;;9.00;;
37843;SDS011;23930;57.632;18.292;2022-07-01T08:06:32;10.38;;;8.18;;
37843;SDS011;23930;57.632;18.292;2022-07-01T08:08:59;21.17;;;9.93;;
37843;SDS011;23930;57.632;18.292;2022-07-01T08:11:25;10.60;;;8.48;;
37843;SDS011;23930;57.632;18.292;2022-07-01T08:13:52;10.27;;;7.85;;
37843;SDS011;23930;57.632;18.292;2022-07-01T08:16:19;13.45;;;8.63;;
37843;SDS011;23930;57.632;18.292;2022-07-01T08:18:47;10.52;;;7.60;;
37843;SDS011;23930;57.632;18.292;2022-07-01T08:21:13;12.38;;;7.35;;
37843;SDS011;23930;57.632;18.292;2022-07-01T08:23:40;10.40;;;7.95;;
37843;SDS011;23930;57.632;18.292;2022-07-01T08:26:07;9.90;;;6.80;;
37843;SDS011;23930;57.632;18.292;2022-07-01T08:28:34;10.05;;;7.45;;
37843;SDS011;23930;57.632;18.292;2022-07-01T08:31:01;8.35;;;6.38;;
37843;SDS011;23930;57.632;18.292;2022-07-01T08:33:30;8.60;;;7.68;;
37843;SDS011;23930;57.632;18.292;2022-07-01T08:35:57;7.78;;;6.43;;
37843;SDS011;23930;57.632;18.292;2022-07-01T08:38:24;11.57;;;7.18;;
37843;SDS011;23930;57.632;18.292;2022-07-01T08:40:51;7.32;;;6.47;;
37843;SDS011;23930;57.632;18.292;2022-07-01T08:43:20;9.10;;;7.10;;
37843;SDS011;23930;57.632;18.292;2022-07-01T08:45:47;8.65;;;7.85;;
37843;SDS011;23930;57.632;18.292;2022-07-01T08:48:17;9.10;;;6.85;;
37843;SDS011;23930;57.632;18.292;2022-07-01T08:50:44;11.73;;;7.00;;
37843;SDS011;23930;57.632;18.292;2022-07-01T08:53:12;9.38;;;6.97;;
37843;SDS011;23930;57.632;18.292;2022-07-01T08:55:39;8.52;;;7.50;;
37843;SDS011;23930;57.632;18.292;2022-07-01T08:58:26;6.72;;;6.13;;
37843;SDS011;23930;57.632;18.292;2022-07-01T09:01:11;6.88;;;6.13;;
37843;SDS011;23930;57.632;18.292;2022-07-01T09:03:47;7.80;;;6.97;;
37843;SDS011;23930;57.632;18.292;2022-07-01T09:06:21;7.47;;;6.82;;
37843;SDS011;23930;57.632;18.292;2022-07-01T09:08:49;8.20;;;7.40;;
37843;SDS011;23930;57.632;18.292;2022-07-01T09:11:26;8.35;;;6.30;;
37843;SDS011;23930;57.632;18.292;2022-07-01T09:14:06;9.48;;;6.55;;
37843;SDS011;23930;57.632;18.292;2022-07-01T09:16:42;9.07;;;7.40;;
37843;SDS011;23930;57.632;18.292;2022-07-01T09:19:12;11.30;;;7.10;;
37843;SDS011;23930;57.632;18.292;2022-07-01T09:21:40;7.30;;;6.55;;
37843;SDS011;23930;57.632;18.292;2022-07-01T09:27:01;9.63;;;6.82;;
37843;SDS011;23930;57.632;18.292;2022-07-01T09:29:33;6.90;;;5.90;;
37843;SDS011;23930;57.632;18.292;2022-07-01T09:37:24;10.75;;;7.07;;
37843;SDS011;23930;57.632;18.292;2022-07-01T09:39:52;7.80;;;6.97;;
37843;SDS011;23930;57.632;18.292;2022-07-01T09:42:21;12.38;;;9.50;;
37843;SDS011;23930;57.632;18.292;2022-07-01T09:47:27;11.55;;;8.40;;
37843;SDS011;23930;57.632;18.292;2022-07-01T09:49:55;8.23;;;7.43;;
37843;SDS011;23930;57.632;18.292;2022-07-01T09:52:23;14.48;;;8.95;;
37843;SDS011;23930;57.632;18.292;2022-07-01T09:54:50;8.77;;;7.13;;
37843;SDS011;23930;57.632;18.292;2022-07-01T09:57:19;7.78;;;6.50;;
37843;SDS011;23930;57.632;18.292;2022-07-01T09:59:49;10.20;;;6.60;;
37843;SDS011;23930;57.632;18.292;2022-07-01T10:02:18;9.45;;;7.68;;
37843;SDS011;23930;57.632;18.292;2022-07-01T10:04:53;12.13;;;6.85;;
37843;SDS011;23930;57.632;18.292;2022-07-01T10:13:23;10.13;;;7.07;;
37843;SDS011;23930;57.632;18.292;2022-07-01T10:15:52;7.45;;;6.72;;
37843;SDS011;23930;57.632;18.292;2022-07-01T10:20:53;9.95;;;7.45;;
37843;SDS011;23930;57.632;18.292;2022-07-01T10:23:22;6.97;;;6.28;;
37843;SDS011;23930;57.632;18.292;2022-07-01T10:25:51;6.47;;;5.82;;
37843;SDS011;23930;57.632;18.292;2022-07-01T10:28:29;8.82;;;7.10;;
37843;SDS011;23930;57.632;18.292;2022-07-01T10:31:19;7.13;;;6.53;;
37843;SDS011;23930;57.632;18.292;2022-07-01T10:34:07;6.93;;;6.05;;
37843;SDS011;23930;57.632;18.292;2022-07-01T10:36:35;7.45;;;6.70;;
37843;SDS011;23930;57.632;18.292;2022-07-01T10:41:41;6.75;;;6.25;;
37843;SDS011;23930;57.632;18.292;2022-07-01T10:44:40;5.80;;;5.30;;
37843;SDS011;23930;57.632;18.292;2022-07-01T10:47:43;7.13;;;6.25;;
37843;SDS011;23930;57.632;18.292;2022-07-01T10:50:11;9.43;;;5.70;;
37843;SDS011;23930;57.632;18.292;2022-07-01T10:53:02;8.80;;;6.05;;
37843;SDS011;23930;57.632;18.292;2022-07-01T10:55:37;9.70;;;7.10;;
37843;SDS011;23930;57.632;18.292;2022-07-01T10:58:05;9.65;;;6.45;;
37843;SDS011;23930;57.632;18.292;2022-07-01T11:00:33;9.70;;;5.82;;
37843;SDS011;23930;57.632;18.292;2022-07-01T11:03:10;7.90;;;5.63;;
37843;SDS011;23930;57.632;18.292;2022-07-01T11:05:38;10.32;;;7.25;;
37843;SDS011;23930;57.632;18.292;2022-07-01T11:08:06;12.18;;;7.15;;
37843;SDS011;23930;57.632;18.292;2022-07-01T11:10:37;7.25;;;6.13;;
37843;SDS011;23930;57.632;18.292;2022-07-01T11:13:06;8.50;;;6.95;;
37843;SDS011;23930;57.632;18.292;2022-07-01T11:15:33;7.63;;;6.47;;
37843;SDS011;23930;57.632;18.292;2022-07-01T11:18:01;9.50;;;8.38;;
37843;SDS011;23930;57.632;18.292;2022-07-01T11:20:30;13.05;;;7.97;;
37843;SDS011;23930;57.632;18.292;2022-07-01T11:22:58;7.22;;;6.43;;
37843;SDS011;23930;57.632;18.292;2022-07-01T11:25:25;9.82;;;6.90;;
37843;SDS011;23930;57.632;18.292;2022-07-01T11:27:53;8.88;;;6.63;;
37843;SDS011;23930;57.632;18.292;2022-07-01T11:30:20;9.68;;;6.53;;
37843;SDS011;23930;57.632;18.292;2022-07-01T11:32:51;9.98;;;7.05;;
37843;SDS011;23930;57.632;18.292;2022-07-01T11:35:26;11.10;;;6.05;;
37843;SDS011;23930;57.632;18.292;2022-07-01T11:38:14;7.32;;;6.32;;
37843;SDS011;23930;57.632;18.292;2022-07-01T11:41:02;13.60;;;7.30;;
37843;SDS011;23930;57.632;18.292;2022-07-01T11:43:49;9.07;;;6.25;;
37843;SDS011;23930;57.632;18.292;2022-07-01T11:46:17;9.02;;;6.97;;
37843;SDS011;23930;57.632;18.292;2022-07-01T11:48:48;11.05;;;7.45;;
37843;SDS011;23930;57.632;18.292;2022-07-01T11:51:18;10.00;;;6.45;;
37843;SDS011;23930;57.632;18.292;2022-07-01T11:53:51;10.60;;;5.93;;
37843;SDS011;23930;57.632;18.292;2022-07-01T11:58:57;13.50;;;7.85;;
37843;SDS011;23930;57.632;18.292;2022-07-01T12:01:29;11.65;;;6.90;;
37843;SDS011;23930;57.632;18.292;2022-07-01T12:03:58;9.70;;;6.80;;
37843;SDS011;23930;57.632;18.292;2022-07-01T12:06:29;11.95;;;8.95;;
37843;SDS011;23930;57.632;18.292;2022-07-01T12:08:57;12.98;;;6.50;;
37843;SDS011;23930;57.632;18.292;2022-07-01T12:11:25;7.22;;;5.82;;
37843;SDS011;23930;57.632;18.292;2022-07-01T12:13:53;8.88;;;6.53;;
37843;SDS011;23930;57.632;18.292;2022-07-01T12:16:23;14.80;;;8.05;;
37843;SDS011;23930;57.632;18.292;2022-07-01T12:18:59;12.50;;;7.38;;
37843;SDS011;23930;57.632;18.292;2022-07-01T12:21:27;12.15;;;6.85;;
37843;SDS011;23930;57.632;18.292;2022-07-01T12:24:09;14.88;;;7.15;;
37843;SDS011;23930;57.632;18.292;2022-07-01T12:26:46;13.77;;;8.25;;
37843;SDS011;23930;57.632;18.292;2022-07-01T12:29:14;9.35;;;7.07;;
37843;SDS011;23930;57.632;18.292;2022-07-01T12:31:43;8.25;;;6.20;;
37843;SDS011;23930;57.632;18.292;2022-07-01T12:34:10;12.57;;;6.60;;
37843;SDS011;23930;57.632;18.292;2022-07-01T12:36:46;13.82;;;6.75;;
37843;SDS011;23930;57.632;18.292;2022-07-01T12:39:14;10.00;;;6.38;;
37843;SDS011;23930;57.632;18.292;2022-07-01T12:41:48;10.10;;;8.90;;
37843;SDS011;23930;57.632;18.292;2022-07-01T12:44:23;15.73;;;7.35;;
37843;SDS011;23930;57.632;18.292;2022-07-01T12:46:51;10.80;;;6.97;;
37843;SDS011;23930;57.632;18.292;2022-07-01T12:49:19;11.25;;;7.85;;
37843;SDS011;23930;57.632;18.292;2022-07-01T12:51:53;11.20;;;8.05;;
37843;SDS011;23930;57.632;18.292;2022-07-01T12:54:30;9.95;;;8.45;;
37843;SDS011;23930;57.632;18.292;2022-07-01T12:56:59;6.80;;;6.20;;
37843;SDS011;23930;57.632;18.292;2022-07-01T12:59:27;14.98;;;8.15;;
37843;SDS011;23930;57.632;18.292;2022-07-01T13:01:54;15.02;;;7.95;;
37843;SDS011;23930;57.632;18.292;2022-07-01T13:04:26;9.82;;;7.55;;
37843;SDS011;23930;57.632;18.292;2022-07-01T13:06:54;11.43;;;7.82;;
37843;SDS011;23930;57.632;18.292;2022-07-01T13:09:21;14.25;;;8.07;;
37843;SDS011;23930;57.632;18.292;2022-07-01T13:11:48;10.13;;;7.65;;
37843;SDS011;23930;57.632;18.292;2022-07-01T13:14:15;18.23;;;8.00;;
37843;SDS011;23930;57.632;18.292;2022-07-01T13:16:42;11.02;;;8.02;;
37843;SDS011;23930;57.632;18.292;2022-07-01T13:19:09;8.25;;;6.95;;
37843;SDS011;23930;57.632;18.292;2022-07-01T13:21:36;10.65;;;7.80;;
37843;SDS011;23930;57.632;18.292;2022-07-01T13:24:03;12.55;;;8.23;;
37843;SDS011;23930;57.632;18.292;2022-07-01T13:26:50;10.80;;;7.80;;
37843;SDS011;23930;57.632;18.292;2022-07-01T13:29:17;11.18;;;7.00;;
37843;SDS011;23930;57.632;18.292;2022-07-01T13:31:44;12.15;;;7.55;;
37843;SDS011;23930;57.632;18.292;2022-07-01T13:34:11;15.80;;;6.93;;
37843;SDS011;23930;57.632;18.292;2022-07-01T13:36:38;13.90;;;8.25;;
37843;SDS011;23930;57.632;18.292;2022-07-01T13:39:05;18.95;;;7.68;;
37843;SDS011;23930;57.632;18.292;2022-07-01T13:41:32;10.45;;;6.60;;
37843;SDS011;23930;57.632;18.292;2022-07-01T13:43:59;11.43;;;7.50;;
37843;SDS011;23930;57.632;18.292;2022-07-01T13:46:26;9.93;;;7.70;;
37843;SDS011;23930;57.632;18.292;2022-07-01T13:48:53;7.65;;;6.95;;
37843;SDS011;23930;57.632;18.292;2022-07-01T13:51:20;9.38;;;6.88;;
37843;SDS011;23930;57.632;18.292;2022-07-01T13:53:47;12.05;;;6.85;;
37843;SDS011;23930;57.632;18.292;2022-07-01T13:56:14;11.70;;;7.13;;
37843;SDS011;23930;57.632;18.292;2022-07-01T13:58:41;13.50;;;8.93;;
37843;SDS011;23930;57.632;18.292;2022-07-01T14:01:08;12.40;;;6.53;;
37843;SDS011;23930;57.632;18.292;2022-07-01T14:03:35;10.55;;;7.00;;
37843;SDS011;23930;57.632;18.292;2022-07-01T14:06:02;10.77;;;7.15;;
37843;SDS011;23930;57.632;18.292;2022-07-01T14:08:29;7.20;;;6.38;;
37843;SDS011;23930;57.632;18.292;2022-07-01T14:10:56;7.68;;;6.65;;
37843;SDS011;23930;57.632;18.292;2022-07-01T14:13:23;9.80;;;6.68;;
37843;SDS011;23930;57.632;18.292;2022-07-01T14:15:50;12.68;;;7.25;;
37843;SDS011;23930;57.632;18.292;2022-07-01T14:18:18;10.23;;;8.98;;
37843;SDS011;23930;57.632;18.292;2022-07-01T14:20:45;10.18;;;6.88;;
37843;SDS011;23930;57.632;18.292;2022-07-01T14:23:12;7.60;;;5.82;;
37843;SDS011;23930;57.632;18.292;2022-07-01T14:25:39;7.05;;;6.35;;
37843;SDS011;23930;57.632;18.292;2022-07-01T14:28:08;8.10;;;6.32;;
37843;SDS011;23930;57.632;18.292;2022-07-01T14:30:35;7.18;;;6.47;;
37843;SDS011;23930;57.632;18.292;2022-07-01T14:33:02;8.95;;;5.63;;
37843;SDS011;23930;57.632;18.292;2022-07-01T14:35:29;9.45;;;6.47;;
37843;SDS011;23930;57.632;18.292;2022-07-01T14:37:56;9.60;;;6.50;;
37843;SDS011;23930;57.632;18.292;2022-07-01T14:40:25;11.52;;;8.40;;
37843;SDS011;23930;57.632;18.292;2022-07-01T14:42:52;9.90;;;6.05;;
37843;SDS011;23930;57.632;18.292;2022-07-01T14:45:19;8.23;;;6.88;;
37843;SDS011;23930;57.632;18.292;2022-07-01T14:47:46;7.75;;;6.75;;
37843;SDS011;23930;57.632;18.292;2022-07-01T14:50:18;8.48;;;7.13;;
37843;SDS011;23930;57.632;18.292;2022-07-01T14:52:45;7.53;;;6.18;;
37843;SDS011;23930;57.632;18.292;2022-07-01T14:55:13;10.55;;;7.68;;
37843;SDS011;23930;57.632;18.292;2022-07-01T14:57:40;7.10;;;6.18;;
37843;SDS011;23930;57.632;18.292;2022-07-01T15:00:07;10.63;;;6.53;;
37843;SDS011;23930;57.632;18.292;2022-07-01T15:02:36;7.40;;;6.15;;